Time;durP1;ratioP1;P1;durP2;ratioP2;P2;SDS_P1;SDS_P2;PMS_P1;PMS_P2;Temp;Humidity;BMP_temperature;BMP_pressure;BME280_temperature;BME280_humidity;BME280_pressure;Samples;Min_cycle;Max_cycle;Signal;HPM_P1;HPM_P2
2023/06/02 00:01:02;;;;;;;24.25;3.05;;;11.20;99.90;;;;;;5095924;28;20423;-81
2023/06/02 00:03:32;;;;;;;12.95;2.33;;;11.20;99.90;;;;;;5096282;28;20084;-82
2023/06/02 00:06:09;;;;;;;15.50;3.42;;;11.10;99.90;;;;;;5096270;28;20090;-82
2023/06/02 00:08:40;;;;;;;12.30;2.72;;;11.10;99.90;;;;;;5095824;28;20380;-82
2023/06/02 00:11:07;;;;;;;14.07;2.85;;;11.10;99.90;;;;;;5096151;28;20108;-82
2023/06/02 00:13:33;;;;;;;15.98;2.05;;;11.10;99.90;;;;;;5095678;28;20534;-82
2023/06/02 00:15:59;;;;;;;12.63;2.53;;;11.10;99.90;;;;;;5095946;28;20127;-83
2023/06/02 00:18:25;;;;;;;11.27;2.55;;;11.10;99.90;;;;;;5095890;28;20127;-82
2023/06/02 00:20:52;;;;;;;15.30;2.40;;;11.10;99.90;;;;;;5095758;28;20048;-82
2023/06/02 00:23:18;;;;;;;18.00;2.75;;;11.10;99.90;;;;;;5096068;28;20044;-82
2023/06/02 00:25:45;;;;;;;12.10;2.55;;;11.10;99.90;;;;;;5114084;28;20044;-82
2023/06/02 00:28:11;;;;;;;15.27;2.53;;;11.10;99.90;;;;;;5114016;28;20119;-82
2023/06/02 00:30:37;;;;;;;10.63;3.10;;;11.10;99.90;;;;;;5095876;28;20039;-81
2023/06/02 00:33:04;;;;;;;12.38;3.00;;;11.10;99.90;;;;;;5095984;28;20083;-82
2023/06/02 00:35:29;;;;;;;14.43;2.45;;;11.10;99.90;;;;;;5095567;28;20040;-81
2023/06/02 00:37:55;;;;;;;11.73;1.83;;;11.10;99.90;;;;;;5095819;28;20051;-82
2023/06/02 00:40:22;;;;;;;8.27;1.75;;;11.10;99.90;;;;;;5095544;28;20058;-81
2023/06/02 00:42:48;;;;;;;18.27;2.42;;;11.10;99.90;;;;;;5113502;28;20473;-82
2023/06/02 00:45:15;;;;;;;13.45;2.97;;;11.10;99.90;;;;;;5095631;28;20050;-82
2023/06/02 00:47:44;;;;;;;14.35;2.88;;;11.10;99.90;;;;;;5095829;28;20406;-81
2023/06/02 00:50:10;;;;;;;14.75;3.58;;;11.00;99.90;;;;;;5095749;28;20062;-82
2023/06/02 00:52:36;;;;;;;17.63;3.30;;;11.10;99.90;;;;;;5095478;28;20479;-82
2023/06/02 00:55:03;;;;;;;14.40;2.83;;;11.10;99.90;;;;;;5095622;28;20461;-82
2023/06/02 00:57:33;;;;;;;14.10;2.78;;;11.10;99.90;;;;;;5095827;28;20529;-83
2023/06/02 01:00:00;;;;;;;16.13;2.22;;;11.10;99.90;;;;;;5095669;28;20555;-83
2023/06/02 01:02:26;;;;;;;16.42;2.72;;;11.10;99.90;;;;;;5095342;28;20473;-83
2023/06/02 01:04:57;;;;;;;14.73;3.20;;;11.10;99.90;;;;;;5095451;28;20050;-83
2023/06/02 01:07:25;;;;;;;9.20;2.22;;;11.10;99.90;;;;;;5104551;28;20487;-82
2023/06/02 01:09:57;;;;;;;19.23;3.13;;;11.00;99.90;;;;;;5093578;28;20048;-83
2023/06/02 01:12:23;;;;;;;15.15;2.42;;;11.10;99.90;;;;;;5096163;28;20051;-84
2023/06/02 01:14:49;;;;;;;16.05;3.17;;;11.10;99.90;;;;;;5097055;28;20100;-83
2023/06/02 01:17:17;;;;;;;12.02;2.50;;;11.10;99.90;;;;;;5095529;28;20051;-82
2023/06/02 01:19:45;;;;;;;12.68;2.53;;;11.10;99.90;;;;;;5095700;28;20076;-83
2023/06/02 01:22:15;;;;;;;16.05;3.13;;;11.20;99.90;;;;;;5095540;28;20051;-82
2023/06/02 01:24:41;;;;;;;11.98;2.40;;;11.20;99.90;;;;;;5096717;28;20127;-83
2023/06/02 01:27:09;;;;;;;13.38;2.55;;;11.10;99.90;;;;;;5095823;28;20178;-82
2023/06/02 01:29:36;;;;;;;10.95;2.70;;;11.10;99.90;;;;;;5095283;28;20064;-81
2023/06/02 01:32:10;;;;;;;13.00;2.50;;;11.20;99.90;;;;;;5095598;28;20384;-83
2023/06/02 01:34:48;;;;;;;9.40;2.50;;;11.10;99.90;;;;;;5095321;28;20055;-82
2023/06/02 01:37:14;;;;;;;10.93;2.15;;;11.20;99.90;;;;;;5095393;28;20065;-82
2023/06/02 01:39:41;;;;;;;16.50;3.30;;;11.20;99.90;;;;;;5095451;28;20055;-83
2023/06/02 01:42:10;;;;;;;13.48;2.45;;;11.10;99.90;;;;;;5094954;28;20044;-82
2023/06/02 01:44:41;;;;;;;23.13;2.97;;;11.10;99.90;;;;;;5096416;28;20144;-83
2023/06/02 01:47:07;;;;;;;18.02;3.25;;;11.10;99.90;;;;;;5095331;28;20502;-83
2023/06/02 01:49:33;;;;;;;18.35;3.47;;;11.00;99.90;;;;;;5096432;28;20082;-82
2023/06/02 01:51:58;;;;;;;16.55;2.80;;;11.10;99.90;;;;;;5095415;28;20045;-84
2023/06/02 01:54:27;;;;;;;12.40;2.42;;;11.00;99.90;;;;;;5095111;28;20101;-82
2023/06/02 01:56:52;;;;;;;13.57;2.72;;;11.10;99.90;;;;;;5094839;28;20044;-82
2023/06/02 01:59:18;;;;;;;9.88;2.60;;;11.10;99.90;;;;;;5096214;28;20036;-82
2023/06/02 02:01:45;;;;;;;14.32;2.95;;;11.10;99.90;;;;;;5096089;28;20048;-81
2023/06/02 02:04:11;;;;;;;13.70;2.47;;;11.10;99.90;;;;;;5096052;28;20123;-83
2023/06/02 02:06:37;;;;;;;15.70;2.67;;;11.10;99.90;;;;;;5095044;28;20131;-82
2023/06/02 02:09:07;;;;;;;11.30;1.88;;;11.00;99.90;;;;;;5094647;28;20079;-82
2023/06/02 02:11:33;;;;;;;17.23;2.67;;;11.10;99.90;;;;;;5094653;28;20487;-81
2023/06/02 02:14:00;;;;;;;16.20;2.42;;;11.00;99.90;;;;;;5095818;28;20087;-82
2023/06/02 02:16:26;;;;;;;11.25;2.15;;;11.00;99.90;;;;;;5094835;28;20046;-82
2023/06/02 02:18:56;;;;;;;15.95;3.30;;;11.00;99.90;;;;;;5094596;28;20044;-82
2023/06/02 02:21:22;;;;;;;13.23;2.97;;;11.00;99.90;;;;;;5094761;28;20044;-82
2023/06/02 02:23:48;;;;;;;14.50;2.88;;;11.00;99.90;;;;;;5093674;28;20048;-82
2023/06/02 02:26:13;;;;;;;14.38;3.63;;;11.00;99.90;;;;;;5094561;28;20132;-82
2023/06/02 02:28:39;;;;;;;18.23;3.05;;;11.00;99.90;;;;;;5094351;28;20391;-81
2023/06/02 02:31:04;;;;;;;18.88;2.92;;;11.00;99.90;;;;;;5094366;28;20053;-82
2023/06/02 02:33:30;;;;;;;14.75;3.38;;;11.00;99.90;;;;;;5094483;28;20177;-82
2023/06/02 02:35:56;;;;;;;16.02;2.97;;;11.00;99.90;;;;;;5094185;28;20490;-82
2023/06/02 02:38:22;;;;;;;17.25;2.60;;;11.00;99.90;;;;;;5094038;28;20048;-82
2023/06/02 02:40:48;;;;;;;14.07;3.70;;;11.10;99.90;;;;;;5094173;28;20044;-83
2023/06/02 02:43:17;;;;;;;11.63;2.58;;;11.10;99.90;;;;;;5093900;28;20077;-82
2023/06/02 02:45:43;;;;;;;19.80;2.67;;;11.10;99.90;;;;;;5094041;28;20066;-81
2023/06/02 02:48:09;;;;;;;15.57;3.30;;;11.10;99.90;;;;;;5095453;28;20044;-82
2023/06/02 02:50:35;;;;;;;19.65;3.95;;;11.10;99.90;;;;;;5094008;28;20056;-82
2023/06/02 02:53:01;;;;;;;16.90;2.20;;;11.10;99.90;;;;;;5094032;28;20109;-82
2023/06/02 02:55:26;;;;;;;14.23;2.67;;;11.10;99.90;;;;;;5093958;28;20044;-82
2023/06/02 02:57:52;;;;;;;15.43;2.80;;;11.10;99.90;;;;;;5094008;28;20395;-81
2023/06/02 03:00:19;;;;;;;13.45;3.72;;;11.20;99.90;;;;;;5095176;28;20039;-82
2023/06/02 03:02:44;;;;;;;16.00;4.22;;;11.10;99.90;;;;;;5093858;28;20483;-82
2023/06/02 03:05:13;;;;;;;14.10;3.05;;;11.20;99.90;;;;;;5093655;28;20044;-82
2023/06/02 03:07:39;;;;;;;16.02;2.97;;;11.20;99.90;;;;;;5094974;28;20099;-82
2023/06/02 03:10:09;;;;;;;15.05;3.38;;;11.20;99.90;;;;;;5093578;28;20120;-82
2023/06/02 03:12:34;;;;;;;13.75;3.55;;;11.20;99.90;;;;;;5095010;28;20048;-81
2023/06/02 03:15:01;;;;;;;15.70;3.33;;;11.20;99.90;;;;;;5093442;28;20040;-82
2023/06/02 03:17:27;;;;;;;13.18;3.13;;;11.20;99.90;;;;;;5093429;28;20048;-81
2023/06/02 03:19:55;;;;;;;14.23;2.70;;;11.20;99.90;;;;;;5093217;28;20044;-82
2023/06/02 03:22:21;;;;;;;15.18;3.20;;;11.30;99.90;;;;;;5094755;28;20055;-82
2023/06/02 03:24:46;;;;;;;13.60;2.75;;;11.20;99.90;;;;;;5092469;28;20059;-81
2023/06/02 03:27:13;;;;;;;16.50;2.97;;;11.30;99.90;;;;;;5092211;28;20044;-81
2023/06/02 03:29:39;;;;;;;20.20;4.05;;;11.20;99.90;;;;;;5091717;28;20169;-82
2023/06/02 03:32:10;;;;;;;13.68;3.38;;;11.20;99.90;;;;;;5093687;28;20150;-82
2023/06/02 03:34:39;;;;;;;18.23;3.65;;;11.30;99.90;;;;;;5093737;28;20044;-82
2023/06/02 03:37:08;;;;;;;21.58;3.55;;;11.30;99.90;;;;;;5094351;28;20147;-82
2023/06/02 03:39:34;;;;;;;17.58;3.63;;;11.30;99.90;;;;;;5094252;28;20048;-81
2023/06/02 03:42:00;;;;;;;19.38;4.53;;;11.30;99.90;;;;;;5094008;28;20048;-82
2023/06/02 03:44:27;;;;;;;16.88;4.28;;;11.30;99.90;;;;;;5093887;28;20407;-82
2023/06/02 03:46:53;;;;;;;17.52;3.35;;;11.30;99.90;;;;;;5093003;28;20491;-82
2023/06/02 03:49:18;;;;;;;15.65;3.30;;;11.30;99.90;;;;;;5092737;28;20440;-81
2023/06/02 03:51:46;;;;;;;15.52;3.63;;;11.30;99.90;;;;;;5092754;28;20059;-81
2023/06/02 03:54:12;;;;;;;19.15;3.60;;;11.30;99.90;;;;;;5092868;28;20044;-82
2023/06/02 03:56:38;;;;;;;10.80;3.10;;;11.40;99.90;;;;;;5093582;28;20097;-81
2023/06/02 03:59:03;;;;;;;18.13;4.25;;;11.40;99.90;;;;;;5092986;28;20051;-82
2023/06/02 04:01:29;;;;;;;14.88;2.95;;;11.40;99.90;;;;;;5092529;28;20056;-82
2023/06/02 04:03:55;;;;;;;13.57;3.40;;;11.40;99.90;;;;;;5094017;28;20134;-81
2023/06/02 04:06:21;;;;;;;26.40;4.63;;;11.50;99.90;;;;;;5092775;28;20051;-82
2023/06/02 04:08:47;;;;;;;17.20;4.82;;;11.40;99.90;;;;;;5092761;28;20105;-82
2023/06/02 04:11:13;;;;;;;14.63;3.60;;;11.50;99.90;;;;;;5092578;28;20165;-82
2023/06/02 04:13:39;;;;;;;14.15;3.28;;;11.50;99.90;;;;;;5092798;28;20104;-82
2023/06/02 04:16:05;;;;;;;18.60;3.28;;;11.50;99.90;;;;;;5092246;28;20056;-82
2023/06/02 04:18:31;;;;;;;20.95;4.22;;;11.50;99.90;;;;;;5093772;28;20052;-81
2023/06/02 04:21:00;;;;;;;16.35;4.20;;;11.50;99.90;;;;;;5092262;28;20052;-82
2023/06/02 04:23:26;;;;;;;19.27;3.47;;;11.50;99.90;;;;;;5092120;28;20093;-81
2023/06/02 04:25:54;;;;;;;20.55;4.20;;;11.50;99.90;;;;;;5092125;28;20048;-81
2023/06/02 04:28:20;;;;;;;18.77;3.97;;;11.50;99.90;;;;;;5093737;28;20048;-82
2023/06/02 04:30:47;;;;;;;18.48;3.55;;;11.50;99.90;;;;;;5092349;28;20043;-82
2023/06/02 04:33:13;;;;;;;14.48;3.95;;;11.60;99.90;;;;;;5092424;28;20495;-82
2023/06/02 04:35:39;;;;;;;24.25;4.55;;;11.60;99.90;;;;;;5093673;28;20090;-82
2023/06/02 04:38:06;;;;;;;20.83;4.32;;;11.60;99.90;;;;;;5093324;28;20047;-82
2023/06/02 04:40:32;;;;;;;18.17;4.43;;;11.60;99.90;;;;;;5092124;28;20469;-82
2023/06/02 04:42:59;;;;;;;19.13;4.38;;;11.70;99.90;;;;;;5092095;28;20546;-82
2023/06/02 04:45:25;;;;;;;21.70;4.50;;;11.60;99.90;;;;;;5094839;28;20095;-82
2023/06/02 04:47:50;;;;;;;15.18;4.10;;;11.60;99.90;;;;;;5096332;28;20072;-82
2023/06/02 04:50:16;;;;;;;21.05;3.95;;;11.70;99.90;;;;;;5096197;28;20054;-82
2023/06/02 04:52:43;;;;;;;28.55;4.90;;;11.80;99.90;;;;;;5096059;28;20044;-82
2023/06/02 04:55:10;;;;;;;21.90;4.50;;;11.80;99.90;;;;;;5096021;28;20055;-82
2023/06/02 04:57:36;;;;;;;16.83;4.25;;;11.70;99.90;;;;;;5097317;28;20032;-81
2023/06/02 05:00:06;;;;;;;16.17;4.95;;;11.80;99.90;;;;;;5097338;28;20128;-82
2023/06/02 05:02:32;;;;;;;20.67;5.43;;;11.80;99.90;;;;;;5095695;28;20040;-81
2023/06/02 05:04:58;;;;;;;18.30;3.90;;;11.80;99.90;;;;;;5095620;28;20099;-81
2023/06/02 05:07:24;;;;;;;17.70;4.20;;;11.80;99.90;;;;;;5097030;28;20040;-81
2023/06/02 05:09:50;;;;;;;19.40;4.63;;;11.90;99.90;;;;;;5095851;28;20044;-81
2023/06/02 05:12:16;;;;;;;18.95;4.65;;;11.90;99.90;;;;;;5095530;28;20126;-80
2023/06/02 05:14:42;;;;;;;22.17;4.95;;;11.90;99.90;;;;;;5095872;28;20052;-81
2023/06/02 05:17:08;;;;;;;19.40;4.25;;;11.90;99.90;;;;;;5095629;28;20052;-81
2023/06/02 05:19:35;;;;;;;26.38;5.50;;;12.00;99.90;;;;;;5096708;28;20504;-82
2023/06/02 05:22:02;;;;;;;26.15;5.25;;;12.00;99.90;;;;;;5095593;28;20097;-82
2023/06/02 05:24:30;;;;;;;16.08;4.57;;;12.00;99.90;;;;;;5095702;28;20483;-81
2023/06/02 05:26:56;;;;;;;17.92;4.82;;;12.00;99.90;;;;;;5095294;28;20086;-81
2023/06/02 05:29:22;;;;;;;22.38;4.35;;;12.00;99.90;;;;;;5096741;28;20064;-82
2023/06/02 05:31:47;;;;;;;26.48;5.50;;;12.10;99.90;;;;;;5095293;28;20044;-81
2023/06/02 05:34:13;;;;;;;18.58;4.65;;;12.10;99.90;;;;;;5095251;28;20044;-83
2023/06/02 05:36:42;;;;;;;25.35;5.32;;;12.10;99.90;;;;;;5095413;28;20052;-82
2023/06/02 05:39:08;;;;;;;26.00;5.32;;;12.10;99.90;;;;;;5094919;28;20047;-82
2023/06/02 05:41:34;;;;;;;23.58;4.88;;;12.20;99.90;;;;;;5094889;28;20056;-81
2023/06/02 05:44:03;;;;;;;25.70;6.10;;;12.30;99.90;;;;;;5095229;28;20044;-82
2023/06/02 05:46:29;;;;;;;23.10;4.07;;;12.30;99.90;;;;;;5095033;28;20491;-82
2023/06/02 05:48:55;;;;;;;24.02;4.57;;;12.40;99.90;;;;;;5094989;28;20495;-82
2023/06/02 05:51:21;;;;;;;18.70;4.15;;;12.40;99.90;;;;;;5096545;28;20048;-82
2023/06/02 05:53:49;;;;;;;18.60;4.72;;;12.50;99.90;;;;;;5095191;28;20040;-82
2023/06/02 05:56:16;;;;;;;23.65;4.53;;;12.50;99.90;;;;;;5094417;28;20123;-81
2023/06/02 05:58:41;;;;;;;19.38;4.25;;;12.60;99.90;;;;;;5094283;28;20044;-81
2023/06/02 06:01:09;;;;;;;22.27;3.95;;;12.60;99.90;;;;;;5096175;28;20036;-81
2023/06/02 06:03:35;;;;;;;27.85;4.63;;;12.70;99.90;;;;;;5096193;28;20044;-82
2023/06/02 06:06:01;;;;;;;20.77;5.18;;;12.80;99.90;;;;;;5094523;28;20135;-83
2023/06/02 06:08:30;;;;;;;17.85;4.05;;;12.90;99.90;;;;;;5096165;28;20055;-83
2023/06/02 06:10:56;;;;;;;18.52;4.13;;;12.90;99.90;;;;;;5095948;28;20075;-82
2023/06/02 06:13:21;;;;;;;23.20;4.28;;;13.00;99.90;;;;;;5094481;28;20071;-81
2023/06/02 06:15:50;;;;;;;18.30;5.38;;;13.00;99.90;;;;;;5095759;28;20114;-82
2023/06/02 06:18:16;;;;;;;36.25;6.35;;;13.10;99.90;;;;;;5094372;28;20502;-82
2023/06/02 06:20:45;;;;;;;17.15;4.18;;;13.20;99.90;;;;;;5094750;28;20044;-82
2023/06/02 06:23:19;;;;;;;24.98;4.10;;;13.30;99.90;;;;;;5094243;28;20059;-81
2023/06/02 06:25:44;;;;;;;21.38;3.80;;;13.40;99.90;;;;;;5094170;28;20633;-82
2023/06/02 06:28:10;;;;;;;24.95;4.07;;;13.50;99.90;;;;;;5094181;28;20056;-82
2023/06/02 06:30:39;;;;;;;19.02;3.65;;;13.60;99.90;;;;;;5094296;28;20047;-82
2023/06/02 06:33:05;;;;;;;17.15;3.60;;;13.70;99.90;;;;;;5094550;28;20059;-81
2023/06/02 06:35:31;;;;;;;20.67;3.65;;;13.90;99.90;;;;;;5094240;28;20427;-82
2023/06/02 06:37:57;;;;;;;17.67;3.38;;;14.00;99.90;;;;;;5095143;28;20177;-82
2023/06/02 06:40:23;;;;;;;21.55;3.78;;;14.00;99.90;;;;;;5094145;28;20126;-82
2023/06/02 06:42:49;;;;;;;21.48;3.63;;;14.20;99.90;;;;;;5094809;28;20423;-82
2023/06/02 06:45:14;;;;;;;19.52;4.18;;;14.50;99.90;;;;;;5093685;28;20537;-81
2023/06/02 06:47:40;;;;;;;20.45;4.18;;;14.70;99.90;;;;;;5093874;28;20097;-81
2023/06/02 06:50:06;;;;;;;23.70;3.95;;;14.90;99.90;;;;;;5094137;28;20039;-83
2023/06/02 06:52:32;;;;;;;33.20;4.35;;;15.10;99.90;;;;;;5093799;28;20048;-84
2023/06/02 06:54:58;;;;;;;19.85;3.22;;;15.30;99.90;;;;;;5094798;28;20048;-84
2023/06/02 06:57:23;;;;;;;23.92;4.10;;;15.50;99.90;;;;;;5095567;28;20123;-89
2023/06/02 06:59:49;;;;;;;24.05;3.80;;;15.70;99.90;;;;;;5093395;28;20066;-85
2023/06/02 07:02:15;;;;;;;17.38;3.33;;;15.80;99.90;;;;;;5093762;28;20036;-80
2023/06/02 07:04:40;;;;;;;27.90;4.03;;;16.00;99.90;;;;;;5094665;28;20036;-80
2023/06/02 07:07:06;;;;;;;19.58;3.28;;;16.10;99.90;;;;;;5093289;28;20056;-80
2023/06/02 07:09:32;;;;;;;12.93;2.75;;;16.30;99.90;;;;;;5105895;28;20040;-80
2023/06/02 07:11:58;;;;;;;22.42;3.80;;;16.40;99.90;;;;;;5096581;28;20052;-80
2023/06/02 07:14:23;;;;;;;19.55;3.00;;;16.50;99.90;;;;;;5096331;28;20426;-79
2023/06/02 07:16:53;;;;;;;13.85;3.70;;;16.50;99.90;;;;;;5096332;28;20075;-79
2023/06/02 07:19:20;;;;;;;17.02;3.55;;;16.70;99.90;;;;;;5096254;28;20050;-80
2023/06/02 07:21:49;;;;;;;12.75;2.72;;;16.80;99.90;;;;;;5096527;28;20082;-80
2023/06/02 07:24:15;;;;;;;15.70;2.70;;;16.90;99.90;;;;;;5096033;28;20498;-81
2023/06/02 07:26:42;;;;;;;17.17;3.58;;;17.00;99.90;;;;;;5114618;28;20077;-84
2023/06/02 07:29:07;;;;;;;14.63;3.53;;;17.10;99.90;;;;;;5096233;28;20036;-75
2023/06/02 07:31:33;;;;;;;15.15;2.78;;;17.20;99.90;;;;;;5114602;28;20059;-80
2023/06/02 07:33:58;;;;;;;14.95;2.60;;;17.30;99.90;;;;;;5095994;28;20035;-81
2023/06/02 07:36:24;;;;;;;16.92;2.75;;;17.30;99.90;;;;;;5096123;28;20043;-79
2023/06/02 07:38:50;;;;;;;12.63;2.97;;;17.50;99.90;;;;;;5095962;28;20047;-80
2023/06/02 07:41:17;;;;;;;11.07;2.35;;;17.60;99.90;;;;;;5096125;28;20056;-81
2023/06/02 07:43:42;;;;;;;13.70;3.05;;;17.40;99.90;;;;;;5114241;28;20062;-80
2023/06/02 07:46:08;;;;;;;16.10;3.10;;;17.40;99.90;;;;;;5095776;28;20432;-80
2023/06/02 07:48:34;;;;;;;22.83;3.13;;;17.50;99.90;;;;;;5095802;28;20043;-82
2023/06/02 07:51:00;;;;;;;18.00;2.60;;;17.40;99.90;;;;;;5096099;28;20047;-80
2023/06/02 07:53:26;;;;;;;10.32;2.20;;;17.30;99.90;;;;;;5095975;28;20054;-82
2023/06/02 07:55:54;;;;;;;9.65;1.80;;;17.10;99.90;;;;;;5095782;28;20469;-80
2023/06/02 07:58:20;;;;;;;12.40;2.63;;;17.00;99.90;;;;;;5114227;28;20097;-80
2023/06/02 08:00:46;;;;;;;15.82;2.65;;;16.80;99.90;;;;;;5113892;28;20043;-80
2023/06/02 08:03:11;;;;;;;11.70;2.60;;;16.90;99.90;;;;;;5096380;28;20043;-81
2023/06/02 08:05:37;;;;;;;13.10;3.10;;;16.50;99.90;;;;;;5095601;28;20044;-82
2023/06/02 08:08:03;;;;;;;10.57;2.13;;;16.80;99.90;;;;;;5113963;28;20105;-81
2023/06/02 08:10:28;;;;;;;15.85;3.00;;;17.00;99.90;;;;;;5095992;28;20040;-82
2023/06/02 08:12:54;;;;;;;13.02;2.22;;;17.10;99.90;;;;;;5095457;28;20400;-82
2023/06/02 08:15:20;;;;;;;8.20;2.35;;;17.00;99.90;;;;;;5113888;28;20119;-81
2023/06/02 08:17:45;;;;;;;10.30;1.98;;;17.20;99.90;;;;;;5095630;28;20078;-81
2023/06/02 08:20:11;;;;;;;10.30;2.33;;;17.30;99.90;;;;;;5094979;28;20055;-81
2023/06/02 08:22:37;;;;;;;11.73;2.47;;;17.60;99.90;;;;;;5095341;28;20111;-82
2023/06/02 08:25:03;;;;;;;7.90;1.77;;;17.50;99.90;;;;;;5095385;28;20059;-81
2023/06/02 08:27:29;;;;;;;14.02;2.30;;;17.40;99.90;;;;;;5095767;28;20043;-81
2023/06/02 08:29:58;;;;;;;14.25;2.25;;;17.50;99.90;;;;;;5095257;28;20047;-81
2023/06/02 08:32:24;;;;;;;9.48;2.20;;;17.40;99.90;;;;;;5095238;28;20100;-80
2023/06/02 08:34:51;;;;;;;11.85;2.10;;;17.50;99.90;;;;;;5095690;28;20043;-80
2023/06/02 08:37:26;;;;;;;15.40;2.28;;;17.60;99.90;;;;;;5113631;28;20040;-81
2023/06/02 08:39:51;;;;;;;9.68;1.80;;;17.50;99.90;;;;;;5113657;28;20071;-80
2023/06/02 08:42:18;;;;;;;8.98;2.05;;;17.80;99.90;;;;;;5095289;28;20083;-80
2023/06/02 08:44:44;;;;;;;13.57;2.50;;;17.70;99.90;;;;;;5095070;28;20058;-80
2023/06/02 08:47:12;;;;;;;12.57;2.10;;;17.60;99.90;;;;;;5095451;28;20052;-80
2023/06/02 08:49:42;;;;;;;10.38;2.40;;;17.80;99.90;;;;;;5095508;28;20047;-80
2023/06/02 08:52:15;;;;;;;7.88;1.80;;;17.40;99.90;;;;;;5095091;28;20112;-77
2023/06/02 08:54:41;;;;;;;10.18;2.03;;;17.70;99.90;;;;;;5095116;28;20059;-80
2023/06/02 08:57:09;;;;;;;11.02;2.53;;;17.60;99.90;;;;;;5095366;28;20124;-81
2023/06/02 08:59:36;;;;;;;10.38;1.88;;;17.60;99.90;;;;;;5095110;28;20082;-80
2023/06/02 09:02:02;;;;;;;9.77;1.80;;;17.80;99.90;;;;;;5113402;28;20035;-81
2023/06/02 09:04:28;;;;;;;13.18;2.45;;;18.10;99.90;;;;;;5113522;28;20443;-80
2023/06/02 09:07:11;;;;;;;11.38;1.98;;;18.20;99.90;;;;;;5113465;28;20040;-80
2023/06/02 09:09:43;;;;;;;12.00;2.00;;;18.40;99.90;;;;;;5113387;28;20039;-80
2023/06/02 09:12:09;;;;;;;10.15;2.15;;;18.20;99.90;;;;;;5113920;28;20100;-80
2023/06/02 09:14:39;;;;;;;7.25;1.60;;;18.10;99.90;;;;;;5095278;28;20052;-80
2023/06/02 09:17:30;;;;;;;10.88;1.52;;;18.40;99.90;;;;;;5113298;28;20043;-80
2023/06/02 09:20:10;;;;;;;9.93;1.98;;;18.10;99.90;;;;;;5113006;28;20573;-82
2023/06/02 09:23:01;;;;;;;9.15;2.20;;;18.00;99.90;;;;;;5095283;28;20543;-82
2023/06/02 09:25:28;;;;;;;5.68;1.42;;;18.30;99.90;;;;;;5113277;28;20040;-81
2023/06/02 09:27:56;;;;;;;9.23;2.33;;;18.50;99.90;;;;;;5113030;28;20501;-82
2023/06/02 09:30:23;;;;;;;16.38;2.50;;;18.40;99.90;;;;;;5094927;28;20081;-81
2023/06/02 09:33:00;;;;;;;4.93;1.42;;;18.20;99.90;;;;;;5114953;28;20055;-81
2023/06/02 09:35:39;;;;;;;8.85;2.20;;;18.60;99.90;;;;;;5116866;28;20066;-80
2023/06/02 09:38:07;;;;;;;8.98;2.10;;;18.60;99.90;;;;;;5116684;28;20040;-81
2023/06/02 09:40:35;;;;;;;7.07;1.75;;;18.80;99.90;;;;;;5116574;28;20120;-81
2023/06/02 09:43:03;;;;;;;10.27;1.92;;;18.80;99.90;;;;;;5098223;28;20090;-82
2023/06/02 09:45:29;;;;;;;18.00;2.38;;;18.30;99.90;;;;;;5116516;28;20052;-82
2023/06/02 09:47:55;;;;;;;5.60;2.03;;;18.30;99.90;;;;;;5116667;28;20043;-82
2023/06/02 09:50:35;;;;;;;7.63;1.80;;;18.50;99.90;;;;;;5098038;28;20089;-81
2023/06/02 09:53:03;;;;;;;9.27;1.90;;;18.40;99.90;;;;;;5116646;28;20177;-80
2023/06/02 09:55:32;;;;;;;11.43;1.92;;;18.50;99.90;;;;;;5116279;28;20032;-82
2023/06/02 09:57:58;;;;;;;7.15;1.55;;;18.60;99.90;;;;;;5097917;28;20047;-79
2023/06/02 10:00:24;;;;;;;5.65;1.58;;;18.70;99.90;;;;;;5116431;28;20043;-80
2023/06/02 10:02:52;;;;;;;9.55;2.40;;;18.50;99.90;;;;;;5116281;28;20059;-80
2023/06/02 10:05:20;;;;;;;6.28;2.05;;;18.30;99.90;;;;;;5097756;28;20039;-80
2023/06/02 10:07:56;;;;;;;10.38;1.92;;;18.80;99.90;;;;;;5098005;28;20047;-80
2023/06/02 10:10:49;;;;;;;7.05;1.65;;;18.80;99.90;;;;;;5116036;28;20048;-79
2023/06/02 10:13:24;;;;;;;10.77;1.73;;;18.90;99.90;;;;;;5097573;28;20055;-80
2023/06/02 10:16:12;;;;;;;8.23;1.73;;;18.80;99.90;;;;;;5097786;28;20443;-80
2023/06/02 10:19:02;;;;;;;11.90;2.05;;;18.80;99.90;;;;;;5097572;28;20055;-79
2023/06/02 10:22:03;;;;;;;8.48;2.08;;;19.10;99.90;;;;;;5115606;28;20470;-80
2023/06/02 10:24:52;;;;;;;11.40;1.80;;;18.80;99.90;;;;;;5077919;28;20085;-80
2023/06/02 10:27:30;;;;;;;9.35;2.33;;;18.90;99.90;;;;;;5097430;28;20054;-80
2023/06/02 10:29:56;;;;;;;7.22;1.70;;;18.90;99.90;;;;;;5097674;28;20035;-80
2023/06/02 10:32:46;;;;;;;11.05;1.77;;;19.10;99.90;;;;;;5115422;28;20433;-80
2023/06/02 10:35:12;;;;;;;5.45;1.70;;;19.00;99.90;;;;;;5115699;28;20118;-80
2023/06/02 10:37:39;;;;;;;5.70;1.42;;;18.80;99.90;;;;;;5115462;28;20114;-79
2023/06/02 10:40:06;;;;;;;11.60;1.85;;;19.20;99.90;;;;;;5115300;28;20387;-80
2023/06/02 10:42:31;;;;;;;8.60;1.60;;;19.00;99.90;;;;;;5096695;28;20509;-80
2023/06/02 10:45:26;;;;;;;6.35;1.83;;;19.20;99.90;;;;;;5096680;28;20051;-80
2023/06/02 10:47:52;;;;;;;10.95;2.10;;;19.20;99.90;;;;;;5097139;28;20097;-80
2023/06/02 10:50:21;;;;;;;10.77;2.10;;;19.30;99.90;;;;;;5097206;28;20390;-80
2023/06/02 10:52:59;;;;;;;6.95;1.67;;;19.30;99.90;;;;;;5115328;28;20058;-80
2023/06/02 10:55:33;;;;;;;8.95;1.83;;;19.10;99.90;;;;;;5115324;28;20039;-80
2023/06/02 10:58:03;;;;;;;6.68;1.45;;;19.00;99.90;;;;;;5114913;28;20112;-80
2023/06/02 11:00:45;;;;;;;5.55;1.63;;;19.20;99.90;;;;;;5115174;28;20126;-80
2023/06/02 11:03:22;;;;;;;11.88;1.83;;;19.10;99.90;;;;;;5114877;28;20542;-79
2023/06/02 11:05:50;;;;;;;6.30;1.63;;;19.10;99.90;;;;;;5096543;28;20482;-80
2023/06/02 11:08:18;;;;;;;6.35;2.17;;;19.00;99.90;;;;;;5114966;28;20096;-80
2023/06/02 11:10:58;;;;;;;11.43;2.10;;;19.10;99.90;;;;;;5114944;28;20051;-80
2023/06/02 11:13:27;;;;;;;6.13;1.90;;;19.10;99.90;;;;;;5114963;28;20044;-81
2023/06/02 11:15:58;;;;;;;6.78;2.08;;;19.40;99.90;;;;;;5114801;28;20045;-81
2023/06/02 11:18:33;;;;;;;9.52;2.10;;;18.80;99.90;;;;;;5096540;28;20047;-80
2023/06/02 11:21:03;;;;;;;9.75;2.55;;;18.60;99.90;;;;;;5096260;28;20052;-81
2023/06/02 11:23:29;;;;;;;9.38;2.00;;;18.80;99.90;;;;;;5096512;28;20046;-81
2023/06/02 11:26:04;;;;;;;7.32;1.85;;;18.80;99.90;;;;;;5114610;28;20043;-80
2023/06/02 11:28:30;;;;;;;8.90;2.80;;;19.10;99.90;;;;;;5114387;28;20048;-81
2023/06/02 11:31:07;;;;;;;8.38;2.22;;;18.90;99.90;;;;;;5096125;28;20047;-80
2023/06/02 11:33:34;;;;;;;8.85;2.38;;;18.90;99.90;;;;;;5114158;28;20546;-81
2023/06/02 11:36:00;;;;;;;8.60;2.25;;;19.20;99.90;;;;;;5096025;28;20043;-81
2023/06/02 11:38:31;;;;;;;9.60;2.88;;;18.90;99.90;;;;;;5114091;28;20446;-81
2023/06/02 11:41:14;;;;;;;12.07;2.50;;;19.20;99.90;;;;;;5096034;28;20108;-80
2023/06/02 11:43:50;;;;;;;6.47;2.17;;;18.70;99.90;;;;;;5072433;28;20052;-80
2023/06/02 11:46:20;;;;;;;9.75;2.53;;;18.60;99.90;;;;;;5072241;28;20121;-80
2023/06/02 11:48:46;;;;;;;10.70;3.08;;;19.00;99.90;;;;;;5073698;28;20127;-80
2023/06/02 11:51:13;;;;;;;8.60;2.05;;;19.00;99.90;;;;;;5072268;28;20074;-79
2023/06/02 11:53:46;;;;;;;19.88;2.97;;;19.10;99.90;;;;;;5073301;28;20101;-79
2023/06/02 11:56:16;;;;;;;7.97;2.58;;;18.80;99.90;;;;;;5071467;28;20098;-80
2023/06/02 11:58:42;;;;;;;12.73;2.95;;;19.20;99.90;;;;;;5073706;28;20055;-79
2023/06/02 12:01:14;;;;;;;14.50;3.00;;;18.90;99.90;;;;;;5073459;28;20052;-80
2023/06/02 12:04:04;;;;;;;16.13;3.25;;;19.00;99.90;;;;;;5072043;28;20049;-80
2023/06/02 12:06:45;;;;;;;11.77;2.88;;;19.10;99.90;;;;;;5073668;28;20071;-80
2023/06/02 12:09:15;;;;;;;8.23;2.70;;;19.20;99.90;;;;;;5073570;28;20043;-80
2023/06/02 12:11:43;;;;;;;10.73;2.58;;;19.00;99.90;;;;;;5073439;28;20040;-80
2023/06/02 12:14:09;;;;;;;9.90;3.42;;;19.30;99.90;;;;;;5073475;28;20093;-79
2023/06/02 12:16:38;;;;;;;12.32;3.08;;;19.30;99.90;;;;;;5073368;28;20044;-81
2023/06/02 12:19:20;;;;;;;10.57;3.55;;;19.20;99.90;;;;;;5072317;28;20484;-80
2023/06/02 12:21:53;;;;;;;13.68;2.83;;;18.50;99.90;;;;;;5073618;28;20124;-80
2023/06/02 12:24:38;;;;;;;12.10;2.95;;;18.70;99.90;;;;;;5071790;28;20051;-80
2023/06/02 12:27:05;;;;;;;11.55;3.03;;;18.80;99.90;;;;;;5071950;28;20053;-80
2023/06/02 12:29:34;;;;;;;12.55;2.85;;;19.10;99.90;;;;;;5073368;28;20098;-80
2023/06/02 12:32:07;;;;;;;13.68;2.95;;;18.90;99.90;;;;;;5071290;28;20399;-79
2023/06/02 12:34:33;;;;;;;14.98;3.20;;;19.00;99.90;;;;;;5071856;28;20052;-79
2023/06/02 12:37:02;;;;;;;12.35;3.20;;;19.10;99.90;;;;;;5073316;28;20040;-80
2023/06/02 12:39:27;;;;;;;12.90;3.47;;;19.10;99.90;;;;;;5071748;28;20048;-80
2023/06/02 12:41:53;;;;;;;13.68;3.20;;;18.80;99.90;;;;;;5084062;28;20055;-80
2023/06/02 12:44:19;;;;;;;12.98;3.03;;;18.90;99.90;;;;;;5095115;28;20048;-80